Darstellungsparameter: Aktuell verwendete Einstellungen:
Skalierung der Graphiken ... ?
xyx+y,   Skalierungsfaktor:      Skalierung: Modus: x, Faktor: 1
Darstellungszeitraum ... ?
Vom - - bis: - -   Zeitraum: 11.06.2020 - 13.06.2020
Min/Max/Avg-Anzeige ... ?
Zeige MMA aktuell
Zeige MMA Monat
Zeige MMA alles
Zeige --A aktuell
Zeige --A Monat
Zeige --A alles
Keine MMA-Anzeige
MMA:
Average (ber die Originaldaten)
MMA-Basis: 11.06.2020 - 13.06.2020
Quicknavigation für Darstellung... ?
Tage:      1T, 2T, 3T, 5T -1T -2T -3T -5T +1T +2T +3T +5T
Wochen: 1W, 2W, 3W -1W -2W -3W +1W +2W +3W
Monate: 1M, 3M, 6M -1M -3M -6M +1M +3M +6M
Jahre:    1J, 3J, 5J, 10J -1J -3J -5J -10J +1J +3J +5J +10J
Nutze für die Darstellung ... ?
Originaldaten oder Mittelwerte auf ...
Stundenbasis Tagesbasis Wochenbasis
Monatsbasis Jahresbasis      Datenbasis: Original-Daten
Darstellen als:
Statistik (Auto) Statistik J:M      Darstellung:
Zur Graphik,    zurück zur Übersicht aller Sensoren.
 
Tabellarische Datenbersicht: ?
 
Sensor: Nr:Datum:Temp:Abs-Feuchte:Windchill:Wind:
Aussen-T/F 1 11-06-2020 00:00:00 15.7 C 11.24 g/m*3 15.7 C 6.4 km/h
2 11-06-2020 00:05:00 15.7 C 11.24 g/m*3 15.7 C 4.8 km/h
3 11-06-2020 00:10:00 15.7 C 11.37 g/m*3 15.7 C 0 km/h
4 11-06-2020 00:15:00 15.6 C 11.3 g/m*3 15.6 C 0 km/h
5 11-06-2020 00:20:00 15.6 C 11.44 g/m*3 15.6 C 0 km/h
6 11-06-2020 00:25:00 15.4 C 11.3 g/m*3 15.4 C 1.6 km/h
7 11-06-2020 00:30:00 15.3 C 11.23 g/m*3 15.3 C 0 km/h
8 11-06-2020 00:35:00 15.2 C 11.16 g/m*3 15.2 C 4.8 km/h
9 11-06-2020 00:40:00 15 C 11.16 g/m*3 15 C 1.6 km/h
10 11-06-2020 00:45:00 14.9 C 11.22 g/m*3 14.9 C 0 km/h
11 11-06-2020 00:50:00 14.8 C 11.15 g/m*3 14.8 C 0 km/h
12 11-06-2020 00:55:00 14.7 C 11.21 g/m*3 14.7 C 1.6 km/h
13 11-06-2020 01:00:00 14.6 C 11.14 g/m*3 14.6 C 4.8 km/h
14 11-06-2020 01:05:00 14.5 C 11.07 g/m*3 14.5 C 0 km/h
15 11-06-2020 01:10:00 14.4 C 11.13 g/m*3 14.4 C 0 km/h
16 11-06-2020 01:15:00 14.3 C 11.06 g/m*3 14.3 C 1.6 km/h
17 11-06-2020 01:20:00 14.2 C 10.99 g/m*3 14.2 C 0 km/h
18 11-06-2020 01:25:00 14.2 C 10.99 g/m*3 14.2 C 0 km/h
19 11-06-2020 01:30:00 14.1 C 10.92 g/m*3 14.1 C 0 km/h
20 11-06-2020 01:35:00 14.1 C 11.04 g/m*3 14.1 C 0 km/h
21 11-06-2020 01:40:00 14 C 10.98 g/m*3 14 C 0 km/h
22 11-06-2020 01:45:00 14 C 10.98 g/m*3 14 C 0 km/h
23 11-06-2020 01:50:00 14 C 10.98 g/m*3 14 C 0 km/h
24 11-06-2020 01:55:00 14 C 10.98 g/m*3 14 C 0 km/h
25 11-06-2020 02:00:00 13.9 C 11.03 g/m*3 13.9 C 0 km/h
Sensor: Nr:Datum:Temp:Abs-Feuchte:Windchill:Wind:
Aussen-T/F 26 11-06-2020 02:05:00 13.9 C 11.03 g/m*3 13.9 C 0 km/h
27 11-06-2020 02:10:00 13.9 C 11.03 g/m*3 13.9 C 0 km/h
28 11-06-2020 02:15:00 13.9 C 11.03 g/m*3 13.9 C 0 km/h
29 11-06-2020 02:20:00 13.9 C 11.03 g/m*3 13.9 C 0 km/h
30 11-06-2020 02:25:00 13.9 C 11.03 g/m*3 13.9 C 0 km/h
31 11-06-2020 02:30:00 13.8 C 11.08 g/m*3 13.8 C 0 km/h
32 11-06-2020 02:35:00 13.8 C 10.96 g/m*3 13.8 C 0 km/h
33 11-06-2020 02:40:00 13.8 C 10.96 g/m*3 13.8 C 0 km/h
34 11-06-2020 02:45:00 13.8 C 11.08 g/m*3 13.8 C 0 km/h
35 11-06-2020 02:50:00 13.8 C 11.08 g/m*3 13.8 C 0 km/h
36 11-06-2020 02:55:00 13.7 C 11.01 g/m*3 13.7 C 0 km/h
37 11-06-2020 03:00:00 13.7 C 11.01 g/m*3 13.7 C 0 km/h
38 11-06-2020 03:05:00 13.6 C 10.95 g/m*3 13.6 C 1.6 km/h
39 11-06-2020 03:10:00 13.6 C 10.95 g/m*3 13.6 C 0 km/h
40 11-06-2020 03:15:00 13.5 C 10.88 g/m*3 13.5 C 0 km/h
41 11-06-2020 03:20:00 13.5 C 10.88 g/m*3 13.5 C 0 km/h
42 11-06-2020 03:25:00 13.4 C 10.81 g/m*3 13.4 C 0 km/h
43 11-06-2020 03:30:00 13.4 C 10.81 g/m*3 13.4 C 0 km/h
44 11-06-2020 03:35:00 13.3 C 10.74 g/m*3 13.3 C 0 km/h
45 11-06-2020 03:40:00 13.2 C 10.68 g/m*3 13.2 C 0 km/h
46 11-06-2020 03:45:00 13.2 C 10.68 g/m*3 13.2 C 1.6 km/h
47 11-06-2020 03:50:00 13.1 C 10.61 g/m*3 13.1 C 1.6 km/h
48 11-06-2020 03:55:00 13.1 C 10.61 g/m*3 13.1 C 0 km/h
49 11-06-2020 04:00:00 13 C 10.66 g/m*3 13 C 1.6 km/h
50 11-06-2020 04:05:00 13 C 10.66 g/m*3 13 C 0 km/h
Sensor: Nr:Datum:Temp:Abs-Feuchte:Windchill:Wind:
Aussen-T/F 51 11-06-2020 04:10:00 12.9 C 10.59 g/m*3 12.9 C 0 km/h
52 11-06-2020 04:15:00 12.9 C 10.48 g/m*3 12.9 C 0 km/h
53 11-06-2020 04:20:00 12.8 C 10.42 g/m*3 12.8 C 0 km/h
54 11-06-2020 04:25:00 12.8 C 10.53 g/m*3 12.8 C 1.6 km/h
55 11-06-2020 04:30:00 12.8 C 10.53 g/m*3 12.8 C 0 km/h
56 11-06-2020 04:35:00 12.7 C 10.46 g/m*3 12.7 C 0 km/h
57 11-06-2020 04:40:00 12.7 C 10.46 g/m*3 12.7 C 0 km/h
58 11-06-2020 04:45:00 12.6 C 10.4 g/m*3 12.6 C 0 km/h
59 11-06-2020 04:50:00 12.6 C 10.4 g/m*3 12.6 C 0 km/h
60 11-06-2020 04:55:00 12.5 C 10.33 g/m*3 12.5 C 1.6 km/h
61 11-06-2020 05:00:00 12.5 C 10.33 g/m*3 12.5 C 1.6 km/h
62 11-06-2020 05:05:00 12.4 C 10.27 g/m*3 12.4 C 1.6 km/h
63 11-06-2020 05:10:00 12.4 C 10.27 g/m*3 12.4 C 0 km/h
64 11-06-2020 05:15:00 12.4 C 10.27 g/m*3 12.4 C 0 km/h
65 11-06-2020 05:20:00 12.3 C 10.21 g/m*3 12.3 C 0 km/h
66 11-06-2020 05:25:00 12.3 C 10.21 g/m*3 12.3 C 0 km/h
67 11-06-2020 05:30:00 12.3 C 10.21 g/m*3 12.3 C 0 km/h
68 11-06-2020 05:35:00 12.3 C 10.21 g/m*3 12.3 C 0 km/h
69 11-06-2020 05:40:00 12.3 C 10.21 g/m*3 12.3 C 0 km/h
70 11-06-2020 05:45:00 12.3 C 10.32 g/m*3 12.3 C 0 km/h
71 11-06-2020 05:50:00 12.4 C 10.38 g/m*3 12.4 C 0 km/h
72 11-06-2020 05:55:00 12.4 C 10.38 g/m*3 12.4 C 0 km/h
73 11-06-2020 06:00:00 12.4 C 10.38 g/m*3 12.4 C 0 km/h
74 11-06-2020 06:05:00 12.5 C 10.44 g/m*3 12.5 C 0 km/h
75 11-06-2020 06:10:00 12.6 C 10.51 g/m*3 12.6 C 0 km/h
Sensor: Nr:Datum:Temp:Abs-Feuchte:Windchill:Wind:
Aussen-T/F 76 11-06-2020 06:15:00 12.6 C 10.51 g/m*3 12.6 C 0 km/h
77 11-06-2020 06:20:00 12.7 C 10.58 g/m*3 12.7 C 0 km/h
78 11-06-2020 06:25:00 12.7 C 10.58 g/m*3 12.7 C 0 km/h
79 11-06-2020 06:30:00 12.8 C 10.64 g/m*3 12.8 C 0 km/h
80 11-06-2020 06:35:00 12.8 C 10.64 g/m*3 12.8 C 0 km/h
81 11-06-2020 06:40:00 12.8 C 10.64 g/m*3 12.8 C 0 km/h
82 11-06-2020 06:45:00 12.9 C 10.71 g/m*3 12.9 C 0 km/h
83 11-06-2020 06:50:00 13 C 10.77 g/m*3 13 C 0 km/h
84 11-06-2020 06:55:00 13.1 C 10.84 g/m*3 13.1 C 0 km/h
85 11-06-2020 07:00:00 13.1 C 10.84 g/m*3 13.1 C 0 km/h
86 11-06-2020 07:05:00 13.1 C 10.84 g/m*3 13.1 C 0 km/h
87 11-06-2020 07:10:00 13.2 C 10.91 g/m*3 13.2 C 1.6 km/h
88 11-06-2020 07:15:00 13.2 C 10.91 g/m*3 13.2 C 1.6 km/h
89 11-06-2020 07:20:00 13.3 C 11.09 g/m*3 13.3 C 0 km/h
90 11-06-2020 07:25:00 13.4 C 11.16 g/m*3 13.4 C 0 km/h
91 11-06-2020 07:30:00 13.4 C 11.04 g/m*3 13.4 C 0 km/h
92 11-06-2020 07:35:00 13.6 C 11.18 g/m*3 13.6 C 0 km/h
93 11-06-2020 07:40:00 13.6 C 11.3 g/m*3 13.6 C 0 km/h
94 11-06-2020 07:45:00 13.7 C 11.25 g/m*3 13.7 C 0 km/h
95 11-06-2020 07:50:00 13.7 C 11.25 g/m*3 13.7 C 0 km/h
96 11-06-2020 07:55:00 13.8 C 11.32 g/m*3 13.8 C 0 km/h
97 11-06-2020 08:00:00 13.8 C 11.32 g/m*3 13.8 C 0 km/h
98 11-06-2020 08:05:00 13.9 C 11.39 g/m*3 13.9 C 0 km/h
99 11-06-2020 08:10:00 13.9 C 11.39 g/m*3 13.9 C 0 km/h
100 11-06-2020 08:15:00 13.9 C 11.39 g/m*3 13.9 C 0 km/h
Sensor: Nr:Datum:Temp:Abs-Feuchte:Windchill:Wind:
Aussen-T/F 101 11-06-2020 08:20:00 14 C 11.46 g/m*3 14 C 0 km/h
102 11-06-2020 08:25:00 14 C 11.46 g/m*3 14 C 0 km/h
103 11-06-2020 08:30:00 14.1 C 11.41 g/m*3 14.1 C 0 km/h
104 11-06-2020 08:35:00 14.1 C 11.53 g/m*3 14.1 C 0 km/h
105 11-06-2020 08:40:00 14.2 C 11.6 g/m*3 14.2 C 0 km/h
106 11-06-2020 08:45:00 14.2 C 11.6 g/m*3 14.2 C 0 km/h
107 11-06-2020 08:50:00 14.2 C 11.48 g/m*3 14.2 C 0 km/h
108 11-06-2020 08:55:00 14.3 C 11.55 g/m*3 14.3 C 0 km/h
109 11-06-2020 09:00:00 14.4 C 11.62 g/m*3 14.4 C 0 km/h
110 11-06-2020 09:05:00 14.5 C 11.69 g/m*3 14.5 C 1.6 km/h
111 11-06-2020 09:10:00 14.6 C 11.76 g/m*3 14.6 C 0 km/h
112 11-06-2020 09:15:00 14.7 C 11.83 g/m*3 14.7 C 0 km/h
113 11-06-2020 09:20:00 14.9 C 11.98 g/m*3 14.9 C 1.6 km/h
114 11-06-2020 09:25:00 14.9 C 11.85 g/m*3 14.9 C 1.6 km/h
115 11-06-2020 09:30:00 14.8 C 11.78 g/m*3 14.8 C 4.8 km/h
116 11-06-2020 09:35:00 14.7 C 11.58 g/m*3 14.7 C 3.2 km/h
117 11-06-2020 09:40:00 14.7 C 11.58 g/m*3 14.7 C 1.6 km/h
118 11-06-2020 09:45:00 14.8 C 11.78 g/m*3 14.8 C 1.6 km/h
119 11-06-2020 09:50:00 14.9 C 11.85 g/m*3 14.9 C 0 km/h
120 11-06-2020 09:55:00 14.9 C 11.73 g/m*3 14.9 C 3.2 km/h
121 11-06-2020 10:00:00 15 C 11.8 g/m*3 15 C 0 km/h
122 11-06-2020 10:05:00 15.2 C 11.94 g/m*3 15.2 C 0 km/h
123 11-06-2020 10:10:00 15.2 C 11.94 g/m*3 15.2 C 1.6 km/h
124 11-06-2020 10:15:00 15.3 C 12.01 g/m*3 15.3 C 0 km/h
125 11-06-2020 10:20:00 15.3 C 11.88 g/m*3 15.3 C 1.6 km/h
Sensor: Nr:Datum:Temp:Abs-Feuchte:Windchill:Wind:
Aussen-T/F 126 11-06-2020 10:25:00 15.4 C 11.96 g/m*3 15.4 C 3.2 km/h
127 11-06-2020 10:30:00 15.6 C 12.1 g/m*3 15.6 C 3.2 km/h
128 11-06-2020 10:35:00 15.6 C 12.1 g/m*3 15.6 C 1.6 km/h
129 11-06-2020 10:40:00 15.7 C 12.18 g/m*3 15.7 C 1.6 km/h
130 11-06-2020 10:45:00 15.8 C 12.11 g/m*3 15.8 C 3.2 km/h
131 11-06-2020 10:50:00 15.9 C 12.19 g/m*3 15.9 C 1.6 km/h
132 11-06-2020 10:55:00 16 C 12.13 g/m*3 16 C 4.8 km/h
133 11-06-2020 11:00:00 16.2 C 12.41 g/m*3 16.2 C 4.8 km/h
134 11-06-2020 11:05:00 16.3 C 12.35 g/m*3 16.3 C 1.6 km/h
135 11-06-2020 11:10:00 16.6 C 12.57 g/m*3 16.6 C 1.6 km/h
136 11-06-2020 11:15:00 16.8 C 12.44 g/m*3 16.8 C 4.8 km/h
137 11-06-2020 11:20:00 16.9 C 12.37 g/m*3 16.9 C 3.2 km/h
138 11-06-2020 11:25:00 16.9 C 12.23 g/m*3 16.9 C 3.2 km/h
139 11-06-2020 11:30:00 17.1 C 12.37 g/m*3 17.1 C 4.8 km/h
140 11-06-2020 11:35:00 17.1 C 12.23 g/m*3 17.1 C 6.4 km/h
141 11-06-2020 11:40:00 17.2 C 12.15 g/m*3 17.2 C 4.8 km/h
142 11-06-2020 11:45:00 17.2 C 12.01 g/m*3 17.2 C 3.2 km/h
143 11-06-2020 11:50:00 17.3 C 12.08 g/m*3 17.3 C 6.4 km/h
144 11-06-2020 11:55:00 17.3 C 11.93 g/m*3 17.3 C 4.8 km/h
145 11-06-2020 12:00:00 17.1 C 11.79 g/m*3 17.1 C 4.8 km/h
146 11-06-2020 12:05:00 17 C 11.87 g/m*3 17 C 3.2 km/h
147 11-06-2020 12:10:00 17.1 C 11.94 g/m*3 17.1 C 4.8 km/h
148 11-06-2020 12:15:00 17.2 C 12.01 g/m*3 17.2 C 4.8 km/h
149 11-06-2020 12:20:00 17.3 C 11.79 g/m*3 17.3 C 4.8 km/h
150 11-06-2020 12:25:00 17.4 C 11.86 g/m*3 17.4 C 3.2 km/h
Sensor: Nr:Datum:Temp:Abs-Feuchte:Windchill:Wind:
Aussen-T/F 151 11-06-2020 12:30:00 17.6 C 12 g/m*3 17.6 C 4.8 km/h
152 11-06-2020 12:35:00 17.6 C 11.85 g/m*3 17.6 C 4.8 km/h
153 11-06-2020 12:40:00 17.7 C 11.77 g/m*3 17.7 C 4.8 km/h
154 11-06-2020 12:45:00 17.7 C 11.77 g/m*3 17.7 C 4.8 km/h
155 11-06-2020 12:50:00 17.8 C 11.99 g/m*3 17.8 C 1.6 km/h
156 11-06-2020 12:55:00 17.9 C 11.76 g/m*3 17.9 C 8.1 km/h
157 11-06-2020 13:00:00 18.2 C 12.12 g/m*3 18.2 C 4.8 km/h
158 11-06-2020 13:05:00 18.3 C 12.04 g/m*3 18.3 C 4.8 km/h
159 11-06-2020 13:10:00 18.2 C 11.81 g/m*3 18.2 C 8.1 km/h
160 11-06-2020 13:15:00 18.2 C 11.97 g/m*3 18.2 C 4.8 km/h
161 11-06-2020 13:20:00 18.2 C 11.81 g/m*3 18.2 C 6.4 km/h
162 11-06-2020 13:25:00 18.2 C 11.97 g/m*3 18.2 C 4.8 km/h
163 11-06-2020 13:30:00 18.3 C 11.88 g/m*3 18.3 C 6.4 km/h
164 11-06-2020 13:35:00 18.3 C 11.88 g/m*3 18.3 C 0 km/h
165 11-06-2020 13:40:00 18.5 C 11.87 g/m*3 18.5 C 8.1 km/h
166 11-06-2020 13:45:00 18.6 C 12.1 g/m*3 18.6 C 8.1 km/h
167 11-06-2020 13:50:00 18.8 C 12.08 g/m*3 18.8 C 4.8 km/h
168 11-06-2020 13:55:00 18.8 C 11.76 g/m*3 18.8 C 8.1 km/h
169 11-06-2020 14:00:00 18.8 C 11.6 g/m*3 18.8 C 9.7 km/h
170 11-06-2020 14:05:00 18.9 C 11.99 g/m*3 18.9 C 1.6 km/h
171 11-06-2020 14:10:00 19.1 C 11.97 g/m*3 19.1 C 4.8 km/h
172 11-06-2020 14:15:00 19.1 C 11.8 g/m*3 19.1 C 6.4 km/h
173 11-06-2020 14:20:00 19.2 C 11.87 g/m*3 19.2 C 8.1 km/h
174 11-06-2020 14:25:00 19.2 C 11.87 g/m*3 19.2 C 6.4 km/h
175 11-06-2020 14:30:00 19.4 C 11.68 g/m*3 19.4 C 8.1 km/h
Sensor: Nr:Datum:Temp:Abs-Feuchte:Windchill:Wind:
Aussen-T/F 176 11-06-2020 14:35:00 19.5 C 11.75 g/m*3 19.5 C 6.4 km/h
177 11-06-2020 14:40:00 19.6 C 11.82 g/m*3 19.6 C 9.7 km/h
178 11-06-2020 14:45:00 19.6 C 11.65 g/m*3 19.6 C 8.1 km/h
179 11-06-2020 14:50:00 19.6 C 11.65 g/m*3 19.6 C 9.7 km/h
180 11-06-2020 14:55:00 19.6 C 11.82 g/m*3 19.6 C 4.8 km/h
181 11-06-2020 15:00:00 19.5 C 11.58 g/m*3 19.5 C 6.4 km/h
182 11-06-2020 15:05:00 19.4 C 11.51 g/m*3 19.4 C 9.7 km/h
183 11-06-2020 15:10:00 19.1 C 11.31 g/m*3 19.1 C 6.4 km/h
184 11-06-2020 15:15:00 18.9 C 11.5 g/m*3 18.9 C 8.1 km/h
185 11-06-2020 15:20:00 18.8 C 12.08 g/m*3 18.8 C 0 km/h
186 11-06-2020 15:25:00 18.8 C 12.24 g/m*3 18.8 C 0 km/h
187 11-06-2020 15:30:00 18.8 C 12.72 g/m*3 18.8 C 1.6 km/h
188 11-06-2020 15:35:00 18.7 C 13.13 g/m*3 18.7 C 0 km/h
189 11-06-2020 15:40:00 18.4 C 12.58 g/m*3 18.4 C 3.2 km/h
190 11-06-2020 15:45:00 18.2 C 12.12 g/m*3 18.2 C 0 km/h
191 11-06-2020 15:50:00 18.1 C 11.9 g/m*3 18.1 C 0 km/h
192 11-06-2020 15:55:00 18.1 C 11.59 g/m*3 18.1 C 3.2 km/h
193 11-06-2020 16:00:00 18.2 C 11.5 g/m*3 18.2 C 4.8 km/h
194 11-06-2020 16:05:00 18.3 C 11.26 g/m*3 18.3 C 6.4 km/h
195 11-06-2020 16:10:00 18.6 C 11.14 g/m*3 18.6 C 6.4 km/h
196 11-06-2020 16:15:00 18.7 C 11.21 g/m*3 18.7 C 4.8 km/h
197 11-06-2020 16:20:00 18.8 C 10.95 g/m*3 18.8 C 6.4 km/h
198 11-06-2020 16:25:00 18.9 C 11.02 g/m*3 18.9 C 4.8 km/h
199 11-06-2020 16:30:00 19.1 C 10.98 g/m*3 19.1 C 4.8 km/h
200 11-06-2020 16:35:00 19.2 C 11.05 g/m*3 19.2 C 6.4 km/h
Sensor: Nr:Datum:Temp:Abs-Feuchte:Windchill:Wind:
Aussen-T/F 201 11-06-2020 16:40:00 19.4 C 10.84 g/m*3 19.4 C 6.4 km/h
202 11-06-2020 16:45:00 19.5 C 10.91 g/m*3 19.5 C 8.1 km/h
203 11-06-2020 16:50:00 19.6 C 10.97 g/m*3 19.6 C 6.4 km/h
204 11-06-2020 16:55:00 19.6 C 10.64 g/m*3 19.6 C 9.7 km/h
205 11-06-2020 17:00:00 19.4 C 10.84 g/m*3 19.4 C 8.1 km/h
206 11-06-2020 17:05:00 19.4 C 10.84 g/m*3 19.4 C 4.8 km/h
207 11-06-2020 17:10:00 19.3 C 10.95 g/m*3 19.3 C 8.1 km/h
208 11-06-2020 17:15:00 19.3 C 10.95 g/m*3 19.3 C 6.4 km/h
209 11-06-2020 17:20:00 19.2 C 11.05 g/m*3 19.2 C 6.4 km/h
210 11-06-2020 17:25:00 19.1 C 11.15 g/m*3 19.1 C 4.8 km/h
211 11-06-2020 17:30:00 19.1 C 11.31 g/m*3 19.1 C 3.2 km/h
212 11-06-2020 17:35:00 19.1 C 11.47 g/m*3 19.1 C 4.8 km/h
213 11-06-2020 17:40:00 19.1 C 11.31 g/m*3 19.1 C 4.8 km/h
214 11-06-2020 17:45:00 19 C 11.24 g/m*3 19 C 4.8 km/h
215 11-06-2020 17:50:00 19.1 C 12.13 g/m*3 19.1 C 0 km/h
216 11-06-2020 17:55:00 19.1 C 12.62 g/m*3 19.1 C 0 km/h
217 11-06-2020 18:00:00 19 C 12.55 g/m*3 19 C 0 km/h
218 11-06-2020 18:05:00 18.9 C 12.64 g/m*3 18.9 C 0 km/h
219 11-06-2020 18:10:00 18.7 C 12.33 g/m*3 18.7 C 3.2 km/h
220 11-06-2020 18:15:00 18.6 C 12.57 g/m*3 18.6 C 0 km/h
221 11-06-2020 18:20:00 18.4 C 12.58 g/m*3 18.4 C 0 km/h
222 11-06-2020 18:25:00 18.2 C 12.59 g/m*3 18.2 C 0 km/h
223 11-06-2020 18:30:00 18.1 C 12.36 g/m*3 18.1 C 0 km/h
224 11-06-2020 18:35:00 17.9 C 12.37 g/m*3 17.9 C 1.6 km/h
225 11-06-2020 18:40:00 17.8 C 12.45 g/m*3 17.8 C 0 km/h
Sensor: Nr:Datum:Temp:Abs-Feuchte:Windchill:Wind:
Aussen-T/F 226 11-06-2020 18:45:00 17.7 C 12.37 g/m*3 17.7 C 1.6 km/h
227 11-06-2020 18:50:00 17.7 C 12.52 g/m*3 17.7 C 1.6 km/h
228 11-06-2020 18:55:00 17.5 C 12.08 g/m*3 17.5 C 1.6 km/h
229 11-06-2020 19:00:00 17.6 C 12 g/m*3 17.6 C 4.8 km/h
230 11-06-2020 19:05:00 17.6 C 11.7 g/m*3 17.6 C 3.2 km/h
231 11-06-2020 19:10:00 17.6 C 11.7 g/m*3 17.6 C 1.6 km/h
232 11-06-2020 19:15:00 17.6 C 11.7 g/m*3 17.6 C 3.2 km/h
233 11-06-2020 19:20:00 17.7 C 11.62 g/m*3 17.7 C 4.8 km/h
234 11-06-2020 19:25:00 17.7 C 11.62 g/m*3 17.7 C 4.8 km/h
235 11-06-2020 19:30:00 17.7 C 11.77 g/m*3 17.7 C 3.2 km/h
236 11-06-2020 19:35:00 17.8 C 12.29 g/m*3 17.8 C 0 km/h
237 11-06-2020 19:40:00 17.8 C 12.45 g/m*3 17.8 C 0 km/h
238 11-06-2020 19:45:00 17.7 C 12.37 g/m*3 17.7 C 0 km/h
239 11-06-2020 19:50:00 17.6 C 12.45 g/m*3 17.6 C 0 km/h
240 11-06-2020 19:55:00 17.6 C 12.45 g/m*3 17.6 C 0 km/h
241 11-06-2020 20:00:00 17.4 C 12.3 g/m*3 17.4 C 0 km/h
242 11-06-2020 20:05:00 17.4 C 12.45 g/m*3 17.4 C 0 km/h
243 11-06-2020 20:10:00 17.3 C 12.37 g/m*3 17.3 C 0 km/h
244 11-06-2020 20:15:00 17.3 C 12.52 g/m*3 17.3 C 0 km/h
245 11-06-2020 20:20:00 17.2 C 12.45 g/m*3 17.2 C 0 km/h
246 11-06-2020 20:25:00 17.1 C 12.37 g/m*3 17.1 C 0 km/h
247 11-06-2020 20:30:00 17.1 C 12.37 g/m*3 17.1 C 0 km/h
248 11-06-2020 20:35:00 17.1 C 12.37 g/m*3 17.1 C 0 km/h
249 11-06-2020 20:40:00 17 C 12.44 g/m*3 17 C 0 km/h
250 11-06-2020 20:45:00 17 C 12.3 g/m*3 17 C 0 km/h
Sensor: Nr:Datum:Temp:Abs-Feuchte:Windchill:Wind:
Aussen-T/F 251 11-06-2020 20:50:00 16.9 C 12.23 g/m*3 16.9 C 0 km/h
252 11-06-2020 20:55:00 16.9 C 12.23 g/m*3 16.9 C 0 km/h
253 11-06-2020 21:00:00 16.8 C 12.15 g/m*3 16.8 C 0 km/h
254 11-06-2020 21:05:00 16.7 C 12.08 g/m*3 16.7 C 0 km/h
255 11-06-2020 21:10:00 16.5 C 11.94 g/m*3 16.5 C 0 km/h
256 11-06-2020 21:15:00 16.4 C 11.86 g/m*3 16.4 C 0 km/h
257 11-06-2020 21:20:00 16.2 C 11.72 g/m*3 16.2 C 0 km/h
258 11-06-2020 21:25:00 16 C 11.58 g/m*3 16 C 0 km/h
259 11-06-2020 21:30:00 15.8 C 11.58 g/m*3 15.8 C 0 km/h
260 11-06-2020 21:35:00 15.7 C 11.51 g/m*3 15.7 C 0 km/h
261 11-06-2020 21:40:00 15.6 C 11.57 g/m*3 15.6 C 0 km/h
262 11-06-2020 21:45:00 15.3 C 11.36 g/m*3 15.3 C 0 km/h
263 11-06-2020 21:50:00 15.2 C 11.29 g/m*3 15.2 C 0 km/h
264 11-06-2020 21:55:00 15 C 11.16 g/m*3 15 C 0 km/h
265 11-06-2020 22:00:00 14.8 C 11.15 g/m*3 14.8 C 1.6 km/h
266 11-06-2020 22:05:00 14.7 C 11.08 g/m*3 14.7 C 1.6 km/h
267 11-06-2020 22:10:00 14.6 C 11.01 g/m*3 14.6 C 1.6 km/h
268 11-06-2020 22:15:00 14.5 C 10.94 g/m*3 14.5 C 0 km/h
269 11-06-2020 22:20:00 14.4 C 11 g/m*3 14.4 C 4.8 km/h
270 11-06-2020 22:25:00 14.3 C 10.93 g/m*3 14.3 C 0 km/h
271 11-06-2020 22:30:00 14.2 C 10.87 g/m*3 14.2 C 0 km/h
272 11-06-2020 22:35:00 14.1 C 10.92 g/m*3 14.1 C 1.6 km/h
273 11-06-2020 22:40:00 14 C 10.86 g/m*3 14 C 1.6 km/h
274 11-06-2020 22:45:00 13.9 C 10.79 g/m*3 13.9 C 1.6 km/h
275 11-06-2020 22:50:00 13.8 C 10.72 g/m*3 13.8 C 4.8 km/h
Sensor: Nr:Datum:Temp:Abs-Feuchte:Windchill:Wind:
Aussen-T/F 276 11-06-2020 22:55:00 13.8 C 10.84 g/m*3 13.8 C 1.6 km/h
277 11-06-2020 23:00:00 13.7 C 10.78 g/m*3 13.7 C 6.4 km/h
278 11-06-2020 23:05:00 13.7 C 10.78 g/m*3 13.7 C 1.6 km/h
279 11-06-2020 23:10:00 13.7 C 10.78 g/m*3 13.7 C 0 km/h
280 11-06-2020 23:15:00 13.6 C 10.71 g/m*3 13.6 C 0 km/h
281 11-06-2020 23:20:00 13.4 C 10.58 g/m*3 13.4 C 0 km/h
282 11-06-2020 23:25:00 13.3 C 10.63 g/m*3 13.3 C 0 km/h
283 11-06-2020 23:30:00 13.3 C 10.63 g/m*3 13.3 C 0 km/h
284 11-06-2020 23:35:00 13.3 C 10.63 g/m*3 13.3 C 0 km/h
285 11-06-2020 23:40:00 13.2 C 10.56 g/m*3 13.2 C 0 km/h
286 11-06-2020 23:45:00 13.1 C 10.5 g/m*3 13.1 C 0 km/h
287 11-06-2020 23:50:00 13.1 C 10.5 g/m*3 13.1 C 0 km/h
288 11-06-2020 23:55:00 12.9 C 10.37 g/m*3 12.9 C 0 km/h
289 12-06-2020 00:00:00 12.8 C 10.3 g/m*3 12.8 C 0 km/h
290 12-06-2020 00:05:00 12.8 C 10.42 g/m*3 12.8 C 0 km/h
291 12-06-2020 00:10:00 12.7 C 10.24 g/m*3 12.7 C 0 km/h
292 12-06-2020 00:15:00 12.6 C 10.29 g/m*3 12.6 C 0 km/h
293 12-06-2020 00:20:00 12.5 C 10.22 g/m*3 12.5 C 0 km/h
294 12-06-2020 00:25:00 12.4 C 10.16 g/m*3 12.4 C 0 km/h
295 12-06-2020 00:30:00 12.4 C 10.16 g/m*3 12.4 C 0 km/h
296 12-06-2020 00:35:00 12.3 C 10.1 g/m*3 12.3 C 0 km/h
297 12-06-2020 00:40:00 12.3 C 10.21 g/m*3 12.3 C 0 km/h
298 12-06-2020 00:45:00 12.3 C 10.21 g/m*3 12.3 C 0 km/h
299 12-06-2020 00:50:00 12.2 C 10.04 g/m*3 12.2 C 0 km/h
300 12-06-2020 00:55:00 12.1 C 9.97 g/m*3 12.1 C 0 km/h
Sensor: Nr:Datum:Temp:Abs-Feuchte:Windchill:Wind:
Aussen-T/F 301 12-06-2020 01:00:00 12 C 10.02 g/m*3 12 C 0 km/h
302 12-06-2020 01:05:00 11.9 C 9.96 g/m*3 11.9 C 0 km/h
303 12-06-2020 01:10:00 11.8 C 9.89 g/m*3 11.8 C 0 km/h
304 12-06-2020 01:15:00 11.8 C 9.89 g/m*3 11.8 C 0 km/h
305 12-06-2020 01:20:00 11.8 C 9.89 g/m*3 11.8 C 0 km/h
306 12-06-2020 01:25:00 11.7 C 9.83 g/m*3 11.7 C 0 km/h
307 12-06-2020 01:30:00 11.7 C 9.83 g/m*3 11.7 C 0 km/h
308 12-06-2020 01:35:00 11.7 C 9.83 g/m*3 11.7 C 0 km/h
309 12-06-2020 01:40:00 11.7 C 9.83 g/m*3 11.7 C 0 km/h
310 12-06-2020 01:45:00 11.6 C 9.77 g/m*3 11.6 C 0 km/h
311 12-06-2020 01:50:00 11.6 C 9.77 g/m*3 11.6 C 0 km/h
312 12-06-2020 01:55:00 11.5 C 9.71 g/m*3 11.5 C 0 km/h
313 12-06-2020 02:00:00 11.4 C 9.75 g/m*3 11.4 C 0 km/h
314 12-06-2020 02:05:00 11.4 C 9.75 g/m*3 11.4 C 0 km/h
315 12-06-2020 02:10:00 11.3 C 9.59 g/m*3 11.3 C 0 km/h
316 12-06-2020 02:15:00 11.3 C 9.69 g/m*3 11.3 C 0 km/h
317 12-06-2020 02:20:00 11.3 C 9.69 g/m*3 11.3 C 0 km/h
318 12-06-2020 02:25:00 11.3 C 9.69 g/m*3 11.3 C 0 km/h
319 12-06-2020 02:30:00 11.2 C 9.63 g/m*3 11.2 C 0 km/h
320 12-06-2020 02:35:00 11.2 C 9.63 g/m*3 11.2 C 0 km/h
321 12-06-2020 02:40:00 11.1 C 9.57 g/m*3 11.1 C 0 km/h
322 12-06-2020 02:45:00 11 C 9.51 g/m*3 11 C 0 km/h
323 12-06-2020 02:50:00 11 C 9.51 g/m*3 11 C 0 km/h
324 12-06-2020 02:55:00 10.9 C 9.45 g/m*3 10.9 C 0 km/h
325 12-06-2020 03:00:00 10.8 C 9.39 g/m*3 10.8 C 0 km/h
Sensor: Nr:Datum:Temp:Abs-Feuchte:Windchill:Wind:
Aussen-T/F 326 12-06-2020 03:05:00 10.8 C 9.39 g/m*3 10.8 C 0 km/h
327 12-06-2020 03:10:00 10.7 C 9.33 g/m*3 10.7 C 0 km/h
328 12-06-2020 03:15:00 10.7 C 9.33 g/m*3 10.7 C 0 km/h
329 12-06-2020 03:20:00 10.7 C 9.33 g/m*3 10.7 C 0 km/h
330 12-06-2020 03:25:00 10.6 C 9.27 g/m*3 10.6 C 0 km/h
331 12-06-2020 03:30:00 10.6 C 9.27 g/m*3 10.6 C 0 km/h
332 12-06-2020 03:35:00 10.6 C 9.27 g/m*3 10.6 C 0 km/h
333 12-06-2020 03:40:00 10.6 C 9.27 g/m*3 10.6 C 0 km/h
334 12-06-2020 03:45:00 10.5 C 9.21 g/m*3 10.5 C 0 km/h
335 12-06-2020 03:50:00 10.4 C 9.16 g/m*3 10.4 C 0 km/h
336 12-06-2020 03:55:00 10.4 C 9.16 g/m*3 10.4 C 0 km/h
337 12-06-2020 04:00:00 10.4 C 9.16 g/m*3 10.4 C 0 km/h
338 12-06-2020 04:05:00 10.3 C 9.1 g/m*3 10.3 C 0 km/h
339 12-06-2020 04:10:00 10.3 C 9.1 g/m*3 10.3 C 0 km/h
340 12-06-2020 04:15:00 10.3 C 9.19 g/m*3 10.3 C 0 km/h
341 12-06-2020 04:20:00 10.3 C 9.19 g/m*3 10.3 C 0 km/h
342 12-06-2020 04:25:00 10.4 C 9.25 g/m*3 10.4 C 0 km/h
343 12-06-2020 04:30:00 10.4 C 9.25 g/m*3 10.4 C 0 km/h
344 12-06-2020 04:35:00 10.4 C 9.25 g/m*3 10.4 C 0 km/h
345 12-06-2020 04:40:00 10.3 C 9.19 g/m*3 10.3 C 0 km/h
346 12-06-2020 04:45:00 10.3 C 9.19 g/m*3 10.3 C 0 km/h
347 12-06-2020 04:50:00 10.3 C 9.19 g/m*3 10.3 C 0 km/h
348 12-06-2020 04:55:00 10.4 C 9.25 g/m*3 10.4 C 0 km/h
349 12-06-2020 05:00:00 10.4 C 9.25 g/m*3 10.4 C 0 km/h
350 12-06-2020 05:05:00 10.5 C 9.31 g/m*3 10.5 C 0 km/h
Sensor: Nr:Datum:Temp:Abs-Feuchte:Windchill:Wind:
Aussen-T/F 351 12-06-2020 05:10:00 10.6 C 9.37 g/m*3 10.6 C 0 km/h
352 12-06-2020 05:15:00 10.7 C 9.43 g/m*3 10.7 C 0 km/h
353 12-06-2020 05:20:00 10.7 C 9.43 g/m*3 10.7 C 0 km/h
354 12-06-2020 05:25:00 10.8 C 9.49 g/m*3 10.8 C 0 km/h
355 12-06-2020 05:30:00 10.8 C 9.49 g/m*3 10.8 C 0 km/h
356 12-06-2020 05:35:00 10.8 C 9.49 g/m*3 10.8 C 0 km/h
357 12-06-2020 05:40:00 10.9 C 9.55 g/m*3 10.9 C 0 km/h
358 12-06-2020 05:45:00 11 C 9.61 g/m*3 11 C 0 km/h
359 12-06-2020 05:50:00 11.2 C 9.83 g/m*3 11.2 C 0 km/h
360 12-06-2020 05:55:00 11.3 C 9.89 g/m*3 11.3 C 0 km/h
361 12-06-2020 06:00:00 11.4 C 9.96 g/m*3 11.4 C 0 km/h
362 12-06-2020 06:05:00 11.6 C 10.08 g/m*3 11.6 C 0 km/h
363 12-06-2020 06:10:00 11.6 C 10.08 g/m*3 11.6 C 0 km/h
364 12-06-2020 06:15:00 11.6 C 10.08 g/m*3 11.6 C 0 km/h
365 12-06-2020 06:20:00 11.6 C 10.08 g/m*3 11.6 C 1.6 km/h
366 12-06-2020 06:25:00 11.7 C 10.15 g/m*3 11.7 C 1.6 km/h
367 12-06-2020 06:30:00 11.8 C 10.21 g/m*3 11.8 C 0 km/h
368 12-06-2020 06:35:00 11.8 C 10.21 g/m*3 11.8 C 4.8 km/h
369 12-06-2020 06:40:00 11.9 C 10.27 g/m*3 11.9 C 4.8 km/h
370 12-06-2020 06:45:00 11.9 C 10.27 g/m*3 11.9 C 0 km/h
371 12-06-2020 06:50:00 12 C 10.34 g/m*3 12 C 1.6 km/h
372 12-06-2020 06:55:00 12 C 10.34 g/m*3 12 C 0 km/h
373 12-06-2020 07:00:00 12.1 C 10.4 g/m*3 12.1 C 0 km/h
374 12-06-2020 07:05:00 12.2 C 10.47 g/m*3 12.2 C 0 km/h
375 12-06-2020 07:10:00 12.2 C 10.47 g/m*3 12.2 C 0 km/h
Sensor: Nr:Datum:Temp:Abs-Feuchte:Windchill:Wind:
Aussen-T/F 376 12-06-2020 07:15:00 12.3 C 10.53 g/m*3 12.3 C 1.6 km/h
377 12-06-2020 07:20:00 12.3 C 10.53 g/m*3 12.3 C 0 km/h
378 12-06-2020 07:25:00 12.5 C 10.66 g/m*3 12.5 C 0 km/h
379 12-06-2020 07:30:00 12.6 C 10.73 g/m*3 12.6 C 0 km/h
380 12-06-2020 07:35:00 12.7 C 10.8 g/m*3 12.7 C 0 km/h
381 12-06-2020 07:40:00 12.7 C 10.8 g/m*3 12.7 C 0 km/h
382 12-06-2020 07:45:00 12.8 C 10.87 g/m*3 12.8 C 0 km/h
383 12-06-2020 07:50:00 12.8 C 10.87 g/m*3 12.8 C 0 km/h
384 12-06-2020 07:55:00 13 C 11 g/m*3 13 C 0 km/h
385 12-06-2020 08:00:00 13.2 C 11.14 g/m*3 13.2 C 0 km/h
386 12-06-2020 08:05:00 13.2 C 11.14 g/m*3 13.2 C 0 km/h
387 12-06-2020 08:10:00 13.3 C 11.21 g/m*3 13.3 C 0 km/h
388 12-06-2020 08:15:00 13.4 C 11.28 g/m*3 13.4 C 1.6 km/h
389 12-06-2020 08:20:00 13.6 C 11.42 g/m*3 13.6 C 1.6 km/h
390 12-06-2020 08:25:00 13.7 C 11.49 g/m*3 13.7 C 3.2 km/h
391 12-06-2020 08:30:00 13.8 C 11.56 g/m*3 13.8 C 1.6 km/h
392 12-06-2020 08:35:00 14 C 11.7 g/m*3 14 C 3.2 km/h
393 12-06-2020 08:40:00 14.1 C 11.77 g/m*3 14.1 C 1.6 km/h
394 12-06-2020 08:45:00 14.3 C 11.92 g/m*3 14.3 C 1.6 km/h
395 12-06-2020 08:50:00 14.5 C 12.06 g/m*3 14.5 C 3.2 km/h
396 12-06-2020 08:55:00 14.7 C 12.09 g/m*3 14.7 C 4.8 km/h
397 12-06-2020 09:00:00 14.8 C 12.16 g/m*3 14.8 C 4.8 km/h
398 12-06-2020 09:05:00 15.1 C 12.39 g/m*3 15.1 C 8.1 km/h
399 12-06-2020 09:10:00 15.3 C 12.41 g/m*3 15.3 C 8.1 km/h
400 12-06-2020 09:15:00 15.6 C 12.5 g/m*3 15.6 C 6.4 km/h
Sensor: Nr:Datum:Temp:Abs-Feuchte:Windchill:Wind:
Aussen-T/F 401 12-06-2020 09:20:00 15.8 C 12.52 g/m*3 15.8 C 8.1 km/h
402 12-06-2020 09:25:00 16 C 12.53 g/m*3 16 C 6.4 km/h
403 12-06-2020 09:30:00 16.2 C 12.41 g/m*3 16.2 C 11.3 km/h
404 12-06-2020 09:35:00 16.4 C 12.42 g/m*3 16.4 C 9.7 km/h
405 12-06-2020 09:40:00 16.7 C 12.65 g/m*3 16.7 C 8.1 km/h
406 12-06-2020 09:45:00 16.8 C 12.58 g/m*3 16.8 C 3.2 km/h
407 12-06-2020 09:50:00 16.9 C 12.51 g/m*3 16.9 C 6.4 km/h
408 12-06-2020 09:55:00 17.2 C 12.74 g/m*3 17.2 C 9.7 km/h
409 12-06-2020 10:00:00 17.3 C 12.67 g/m*3 17.3 C 9.7 km/h
410 12-06-2020 10:05:00 17.3 C 12.67 g/m*3 17.3 C 8.1 km/h
411 12-06-2020 10:10:00 17.4 C 12.6 g/m*3 17.4 C 9.7 km/h
412 12-06-2020 10:15:00 17.7 C 12.82 g/m*3 17.7 C 17.7 km/h
413 12-06-2020 10:20:00 17.8 C 12.75 g/m*3 17.8 C 16.1 km/h
414 12-06-2020 10:25:00 17.9 C 12.83 g/m*3 17.9 C 12.9 km/h
415 12-06-2020 10:30:00 18.2 C 12.9 g/m*3 18.2 C 14.5 km/h
416 12-06-2020 10:35:00 18.3 C 12.82 g/m*3 18.3 C 8.1 km/h
417 12-06-2020 10:40:00 18.6 C 13.05 g/m*3 18.6 C 11.3 km/h
418 12-06-2020 10:45:00 18.8 C 13.05 g/m*3 18.8 C 9.7 km/h
419 12-06-2020 10:50:00 19.1 C 13.11 g/m*3 19.1 C 6.4 km/h
420 12-06-2020 10:55:00 19.3 C 13.27 g/m*3 19.3 C 11.3 km/h
421 12-06-2020 11:00:00 19.4 C 13.18 g/m*3 19.4 C 9.7 km/h
422 12-06-2020 11:05:00 19.6 C 13.34 g/m*3 19.6 C 6.4 km/h
423 12-06-2020 11:10:00 19.8 C 13.32 g/m*3 19.8 C 9.7 km/h
424 12-06-2020 11:15:00 19.9 C 13.57 g/m*3 19.9 C 4.8 km/h
425 12-06-2020 11:20:00 20.1 C 13.39 g/m*3 20.1 C 12.9 km/h
Sensor: Nr:Datum:Temp:Abs-Feuchte:Windchill:Wind:
Aussen-T/F 426 12-06-2020 11:25:00 20.3 C 13.54 g/m*3 20.3 C 12.9 km/h
427 12-06-2020 11:30:00 20.6 C 13.42 g/m*3 20.6 C 9.7 km/h
428 12-06-2020 11:35:00 20.7 C 13.5 g/m*3 20.7 C 11.3 km/h
429 12-06-2020 11:40:00 20.9 C 13.66 g/m*3 20.9 C 9.7 km/h
430 12-06-2020 11:45:00 21.1 C 13.63 g/m*3 21.1 C 4.8 km/h
431 12-06-2020 11:50:00 21.2 C 13.71 g/m*3 21.2 C 8.1 km/h
432 12-06-2020 11:55:00 21.4 C 13.87 g/m*3 21.4 C 0 km/h
433 12-06-2020 12:00:00 21.6 C 13.66 g/m*3 21.6 C 9.7 km/h
434 12-06-2020 12:05:00 21.7 C 13.73 g/m*3 21.7 C 14.5 km/h
435 12-06-2020 12:10:00 21.8 C 13.81 g/m*3 21.8 C 9.7 km/h
436 12-06-2020 12:15:00 21.8 C 13.81 g/m*3 21.8 C 9.7 km/h
437 12-06-2020 12:20:00 21.9 C 13.89 g/m*3 21.9 C 8.1 km/h
438 12-06-2020 12:25:00 22.2 C 13.74 g/m*3 22.2 C 9.7 km/h
439 12-06-2020 12:30:00 22.4 C 14.1 g/m*3 22.4 C 9.7 km/h
440 12-06-2020 12:35:00 22.6 C 14.06 g/m*3 22.6 C 4.8 km/h
441 12-06-2020 12:40:00 22.8 C 14.02 g/m*3 22.8 C 6.4 km/h
442 12-06-2020 12:45:00 22.9 C 13.9 g/m*3 22.9 C 14.5 km/h
443 12-06-2020 12:50:00 23.1 C 14.06 g/m*3 23.1 C 16.1 km/h
444 12-06-2020 12:55:00 23.3 C 14.22 g/m*3 23.3 C 8.1 km/h
445 12-06-2020 13:00:00 23.5 C 14.38 g/m*3 23.5 C 9.7 km/h
446 12-06-2020 13:05:00 23.7 C 14.33 g/m*3 23.7 C 9.7 km/h
447 12-06-2020 13:10:00 23.9 C 14.28 g/m*3 23.9 C 6.4 km/h
448 12-06-2020 13:15:00 24 C 13.49 g/m*3 24 C 12.9 km/h
449 12-06-2020 13:20:00 24.2 C 13.64 g/m*3 24.2 C 11.3 km/h
450 12-06-2020 13:25:00 24.3 C 12.83 g/m*3 24.3 C 8.1 km/h
Sensor: Nr:Datum:Temp:Abs-Feuchte:Windchill:Wind:
Aussen-T/F 451 12-06-2020 13:30:00 24.6 C 12.6 g/m*3 24.6 C 11.3 km/h
452 12-06-2020 13:35:00 24.8 C 12.75 g/m*3 24.8 C 11.3 km/h
453 12-06-2020 13:40:00 24.9 C 12.36 g/m*3 24.9 C 11.3 km/h
454 12-06-2020 13:45:00 25.2 C 12.11 g/m*3 25.2 C 19.3 km/h
455 12-06-2020 13:50:00 25.3 C 12.17 g/m*3 25.3 C 19.3 km/h
456 12-06-2020 13:55:00 25.4 C 12.48 g/m*3 25.4 C 12.9 km/h
457 12-06-2020 14:00:00 25.4 C 12.24 g/m*3 25.4 C 12.9 km/h
458 12-06-2020 14:05:00 25.7 C 12.21 g/m*3 25.7 C 16.1 km/h
459 12-06-2020 14:10:00 25.8 C 12.04 g/m*3 25.8 C 12.9 km/h
460 12-06-2020 14:15:00 25.9 C 11.86 g/m*3 25.9 C 8.1 km/h
461 12-06-2020 14:20:00 26 C 12.17 g/m*3 26 C 16.1 km/h
462 12-06-2020 14:25:00 26.1 C 12.24 g/m*3 26.1 C 8.1 km/h
463 12-06-2020 14:30:00 26.2 C 12.31 g/m*3 26.2 C 8.1 km/h
464 12-06-2020 14:35:00 26.3 C 12.87 g/m*3 26.3 C 8.1 km/h
465 12-06-2020 14:40:00 26.4 C 12.45 g/m*3 26.4 C 8.1 km/h
466 12-06-2020 14:45:00 26.7 C 12.15 g/m*3 26.7 C 14.5 km/h
467 12-06-2020 14:50:00 26.8 C 11.96 g/m*3 26.8 C 6.4 km/h
468 12-06-2020 14:55:00 26.9 C 12.03 g/m*3 26.9 C 11.3 km/h
469 12-06-2020 15:00:00 27.1 C 12.16 g/m*3 27.1 C 17.7 km/h
470 12-06-2020 15:05:00 27.3 C 12.04 g/m*3 27.3 C 11.3 km/h
471 12-06-2020 15:10:00 27.5 C 11.64 g/m*3 27.5 C 16.1 km/h
472 12-06-2020 15:15:00 27.4 C 11.84 g/m*3 27.4 C 17.7 km/h
473 12-06-2020 15:20:00 27.4 C 11.58 g/m*3 27.4 C 12.9 km/h
474 12-06-2020 15:25:00 27.5 C 12.17 g/m*3 27.5 C 14.5 km/h
475 12-06-2020 15:30:00 27.7 C 11.77 g/m*3 27.7 C 11.3 km/h
Sensor: Nr:Datum:Temp:Abs-Feuchte:Windchill:Wind:
Aussen-T/F 476 12-06-2020 15:35:00 27.8 C 11.83 g/m*3 27.8 C 12.9 km/h
477 12-06-2020 15:40:00 28.1 C 12.03 g/m*3 28.1 C 11.3 km/h
478 12-06-2020 15:45:00 28.5 C 11.74 g/m*3 28.5 C 9.7 km/h
479 12-06-2020 15:50:00 28.7 C 11.59 g/m*3 28.7 C 12.9 km/h
480 12-06-2020 15:55:00 28.9 C 11.71 g/m*3 28.9 C 8.1 km/h
481 12-06-2020 16:00:00 29.2 C 11.61 g/m*3 29.2 C 12.9 km/h
482 12-06-2020 16:05:00 29.1 C 11.55 g/m*3 29.1 C 14.5 km/h
483 12-06-2020 16:10:00 29.3 C 11.09 g/m*3 29.3 C 4.8 km/h
484 12-06-2020 16:15:00 29.7 C 11.34 g/m*3 29.7 C 14.5 km/h
485 12-06-2020 16:20:00 29.8 C 12.9 g/m*3 29.8 C 9.7 km/h
486 12-06-2020 16:25:00 30.1 C 11.59 g/m*3 30.1 C 8.1 km/h
487 12-06-2020 16:30:00 29.9 C 11.46 g/m*3 29.9 C 11.3 km/h
488 12-06-2020 16:35:00 29.9 C 12.06 g/m*3 29.9 C 9.7 km/h
489 12-06-2020 16:40:00 30.2 C 11.65 g/m*3 30.2 C 11.3 km/h
490 12-06-2020 16:45:00 30.1 C 11.59 g/m*3 30.1 C 12.9 km/h
491 12-06-2020 16:50:00 29.6 C 11.28 g/m*3 29.6 C 12.9 km/h
492 12-06-2020 16:55:00 29.4 C 11.45 g/m*3 29.4 C 16.1 km/h
493 12-06-2020 17:00:00 29.4 C 11.45 g/m*3 29.4 C 12.9 km/h
494 12-06-2020 17:05:00 29.4 C 11.15 g/m*3 29.4 C 17.7 km/h
495 12-06-2020 17:10:00 29.3 C 10.8 g/m*3 29.3 C 14.5 km/h
496 12-06-2020 17:15:00 29.2 C 11.61 g/m*3 29.2 C 9.7 km/h
497 12-06-2020 17:20:00 29.4 C 11.45 g/m*3 29.4 C 9.7 km/h
498 12-06-2020 17:25:00 29.3 C 11.68 g/m*3 29.3 C 6.4 km/h
499 12-06-2020 17:30:00 29.5 C 11.81 g/m*3 29.5 C 11.3 km/h
500 12-06-2020 17:35:00 29.7 C 11.64 g/m*3 29.7 C 14.5 km/h
Sensor: Nr:Datum:Temp:Abs-Feuchte:Windchill:Wind:
Aussen-T/F 501 12-06-2020 17:40:00 29.6 C 10.98 g/m*3 29.6 C 14.5 km/h
502 12-06-2020 17:45:00 29.6 C 11.28 g/m*3 29.6 C 17.7 km/h
503 12-06-2020 17:50:00 29.8 C 11.1 g/m*3 29.8 C 8.1 km/h
504 12-06-2020 17:55:00 29.8 C 11.4 g/m*3 29.8 C 12.9 km/h
505 12-06-2020 18:00:00 29.8 C 11.4 g/m*3 29.8 C 14.5 km/h
506 12-06-2020 18:05:00 29.4 C 11.15 g/m*3 29.4 C 11.3 km/h
507 12-06-2020 18:10:00 29.4 C 11.45 g/m*3 29.4 C 8.1 km/h
508 12-06-2020 18:15:00 29.6 C 11.28 g/m*3 29.6 C 12.9 km/h
509 12-06-2020 18:20:00 29.6 C 11.28 g/m*3 29.6 C 14.5 km/h
510 12-06-2020 18:25:00 29.2 C 11.32 g/m*3 29.2 C 11.3 km/h
511 12-06-2020 18:30:00 29.1 C 11.26 g/m*3 29.1 C 11.3 km/h
512 12-06-2020 18:35:00 29.3 C 11.09 g/m*3 29.3 C 8.1 km/h
513 12-06-2020 18:40:00 29.7 C 11.64 g/m*3 29.7 C 8.1 km/h
514 12-06-2020 18:45:00 30.1 C 11.89 g/m*3 30.1 C 6.4 km/h
515 12-06-2020 18:50:00 30.2 C 11.65 g/m*3 30.2 C 12.9 km/h
516 12-06-2020 18:55:00 29.7 C 11.34 g/m*3 29.7 C 9.7 km/h
517 12-06-2020 19:00:00 29.1 C 11.55 g/m*3 29.1 C 8.1 km/h
518 12-06-2020 19:05:00 28.7 C 12.15 g/m*3 28.7 C 6.4 km/h
519 12-06-2020 19:10:00 28.5 C 11.74 g/m*3 28.5 C 1.6 km/h
520 12-06-2020 19:15:00 28.4 C 11.95 g/m*3 28.4 C 8.1 km/h
521 12-06-2020 19:20:00 28.4 C 11.67 g/m*3 28.4 C 6.4 km/h
522 12-06-2020 19:25:00 28.4 C 11.95 g/m*3 28.4 C 6.4 km/h
523 12-06-2020 19:30:00 28.5 C 11.74 g/m*3 28.5 C 9.7 km/h
524 12-06-2020 19:35:00 28.3 C 11.89 g/m*3 28.3 C 9.7 km/h
525 12-06-2020 19:40:00 28.1 C 13.4 g/m*3 28.1 C 3.2 km/h
Sensor: Nr:Datum:Temp:Abs-Feuchte:Windchill:Wind:
Aussen-T/F 526 12-06-2020 19:45:00 27.9 C 11.9 g/m*3 27.9 C 6.4 km/h
527 12-06-2020 19:50:00 27.8 C 12.1 g/m*3 27.8 C 9.7 km/h
528 12-06-2020 19:55:00 27.7 C 12.3 g/m*3 27.7 C 6.4 km/h
529 12-06-2020 20:00:00 27.8 C 14.26 g/m*3 27.8 C 4.8 km/h
530 12-06-2020 20:05:00 27.9 C 12.44 g/m*3 27.9 C 6.4 km/h
531 12-06-2020 20:10:00 27.9 C 12.17 g/m*3 27.9 C 4.8 km/h
532 12-06-2020 20:15:00 27.9 C 12.98 g/m*3 27.9 C 4.8 km/h
533 12-06-2020 20:20:00 27.9 C 14.6 g/m*3 27.9 C 3.2 km/h
534 12-06-2020 20:25:00 27.8 C 14.52 g/m*3 27.8 C 4.8 km/h
535 12-06-2020 20:30:00 27.3 C 13.61 g/m*3 27.3 C 4.8 km/h
536 12-06-2020 20:35:00 26.8 C 14.25 g/m*3 26.8 C 3.2 km/h
537 12-06-2020 20:40:00 26.3 C 14.11 g/m*3 26.3 C 3.2 km/h
538 12-06-2020 20:45:00 25.7 C 13.89 g/m*3 25.7 C 4.8 km/h
539 12-06-2020 20:50:00 25 C 13.81 g/m*3 25 C 6.4 km/h
540 12-06-2020 20:55:00 24.4 C 13.58 g/m*3 24.4 C 3.2 km/h
541 12-06-2020 21:00:00 23.9 C 13.41 g/m*3 23.9 C 4.8 km/h
542 12-06-2020 21:05:00 23.5 C 13.32 g/m*3 23.5 C 4.8 km/h
543 12-06-2020 21:10:00 23.1 C 13.23 g/m*3 23.1 C 6.4 km/h
544 12-06-2020 21:15:00 22.8 C 13.21 g/m*3 22.8 C 8.1 km/h
545 12-06-2020 21:20:00 22.5 C 13.18 g/m*3 22.5 C 8.1 km/h
546 12-06-2020 21:25:00 22.3 C 13.23 g/m*3 22.3 C 8.1 km/h
547 12-06-2020 21:30:00 22.1 C 13.27 g/m*3 22.1 C 4.8 km/h
548 12-06-2020 21:35:00 21.9 C 13.31 g/m*3 21.9 C 4.8 km/h
549 12-06-2020 21:40:00 21.7 C 13.16 g/m*3 21.7 C 0 km/h
550 12-06-2020 21:45:00 21.5 C 13.01 g/m*3 21.5 C 1.6 km/h
Sensor: Nr:Datum:Temp:Abs-Feuchte:Windchill:Wind:
Aussen-T/F 551 12-06-2020 21:50:00 21.3 C 12.86 g/m*3 21.3 C 6.4 km/h
552 12-06-2020 21:55:00 21.2 C 12.97 g/m*3 21.2 C 6.4 km/h
553 12-06-2020 22:00:00 21.1 C 12.9 g/m*3 21.1 C 4.8 km/h
554 12-06-2020 22:05:00 20.9 C 12.93 g/m*3 20.9 C 6.4 km/h
555 12-06-2020 22:10:00 20.8 C 13.04 g/m*3 20.8 C 4.8 km/h
556 12-06-2020 22:15:00 20.7 C 13.14 g/m*3 20.7 C 6.4 km/h
557 12-06-2020 22:20:00 20.5 C 12.99 g/m*3 20.5 C 4.8 km/h
558 12-06-2020 22:25:00 20.4 C 12.91 g/m*3 20.4 C 8.1 km/h
559 12-06-2020 22:30:00 20.3 C 12.84 g/m*3 20.3 C 6.4 km/h
560 12-06-2020 22:35:00 20.1 C 12.69 g/m*3 20.1 C 4.8 km/h
561 12-06-2020 22:40:00 20.1 C 13.04 g/m*3 20.1 C 3.2 km/h
562 12-06-2020 22:45:00 19.9 C 12.89 g/m*3 19.9 C 0 km/h
563 12-06-2020 22:50:00 19.8 C 12.98 g/m*3 19.8 C 0 km/h
564 12-06-2020 22:55:00 19.7 C 12.91 g/m*3 19.7 C 0 km/h
565 12-06-2020 23:00:00 19.4 C 12.85 g/m*3 19.4 C 0 km/h
566 12-06-2020 23:05:00 19.3 C 12.94 g/m*3 19.3 C 3.2 km/h
567 12-06-2020 23:10:00 19.2 C 12.7 g/m*3 19.2 C 6.4 km/h
568 12-06-2020 23:15:00 19.1 C 12.95 g/m*3 19.1 C 3.2 km/h
569 12-06-2020 23:20:00 18.9 C 12.8 g/m*3 18.9 C 1.6 km/h
570 12-06-2020 23:25:00 18.8 C 12.88 g/m*3 18.8 C 0 km/h
571 12-06-2020 23:30:00 18.7 C 12.81 g/m*3 18.7 C 0 km/h
572 12-06-2020 23:35:00 18.6 C 12.89 g/m*3 18.6 C 0 km/h
573 12-06-2020 23:40:00 18.4 C 12.74 g/m*3 18.4 C 0 km/h
574 12-06-2020 23:45:00 18.3 C 12.66 g/m*3 18.3 C 0 km/h
575 12-06-2020 23:50:00 18.2 C 12.59 g/m*3 18.2 C 0 km/h
Sensor: Nr:Datum:Temp:Abs-Feuchte:Windchill:Wind:
Aussen-T/F 576 12-06-2020 23:55:00 18.1 C 12.67 g/m*3 18.1 C 0 km/h
577 13-06-2020 00:00:00 18 C 12.59 g/m*3 18 C 0 km/h
578 13-06-2020 00:05:00 17.9 C 12.67 g/m*3 17.9 C 0 km/h
579 13-06-2020 00:10:00 17.8 C 12.6 g/m*3 17.8 C 0 km/h
580 13-06-2020 00:15:00 17.7 C 12.52 g/m*3 17.7 C 0 km/h
581 13-06-2020 00:20:00 17.6 C 12.6 g/m*3 17.6 C 0 km/h
582 13-06-2020 00:25:00 17.5 C 12.52 g/m*3 17.5 C 0 km/h
583 13-06-2020 00:30:00 17.4 C 12.6 g/m*3 17.4 C 0 km/h
584 13-06-2020 00:35:00 17.4 C 12.6 g/m*3 17.4 C 9.7 km/h
585 13-06-2020 00:40:00 17.8 C 12.45 g/m*3 17.8 C 11.3 km/h
586 13-06-2020 00:45:00 18.4 C 12.58 g/m*3 18.4 C 12.9 km/h
587 13-06-2020 00:50:00 18.8 C 12.72 g/m*3 18.8 C 12.9 km/h
588 13-06-2020 00:55:00 18.9 C 12.8 g/m*3 18.9 C 9.7 km/h
589 13-06-2020 01:00:00 19.2 C 12.86 g/m*3 19.2 C 11.3 km/h
590 13-06-2020 01:05:00 19.2 C 12.86 g/m*3 19.2 C 12.9 km/h
591 13-06-2020 01:10:00 19.3 C 12.94 g/m*3 19.3 C 12.9 km/h
592 13-06-2020 01:15:00 19.3 C 12.94 g/m*3 19.3 C 8.1 km/h
593 13-06-2020 01:20:00 19.2 C 12.86 g/m*3 19.2 C 6.4 km/h
594 13-06-2020 01:25:00 19.2 C 13.03 g/m*3 19.2 C 14.5 km/h
595 13-06-2020 01:30:00 19.2 C 12.86 g/m*3 19.2 C 14.5 km/h
596 13-06-2020 01:35:00 19.3 C 12.94 g/m*3 19.3 C 12.9 km/h
597 13-06-2020 01:40:00 19.3 C 12.94 g/m*3 19.3 C 17.7 km/h
598 13-06-2020 01:45:00 19.4 C 12.85 g/m*3 19.4 C 17.7 km/h
599 13-06-2020 01:50:00 19.4 C 12.68 g/m*3 19.4 C 14.5 km/h
600 13-06-2020 01:55:00 19.5 C 12.42 g/m*3 19.5 C 16.1 km/h
Sensor: Nr:Datum:Temp:Abs-Feuchte:Windchill:Wind:
Aussen-T/F 601 13-06-2020 02:00:00 19.7 C 12.23 g/m*3 19.7 C 14.5 km/h
602 13-06-2020 02:05:00 19.7 C 12.23 g/m*3 19.7 C 6.4 km/h
603 13-06-2020 02:10:00 19.7 C 12.23 g/m*3 19.7 C 9.7 km/h
604 13-06-2020 02:15:00 19.5 C 12.08 g/m*3 19.5 C 4.8 km/h
605 13-06-2020 02:20:00 19.3 C 11.94 g/m*3 19.3 C 9.7 km/h
606 13-06-2020 02:25:00 19.2 C 11.87 g/m*3 19.2 C 9.7 km/h
607 13-06-2020 02:30:00 19.2 C 11.87 g/m*3 19.2 C 3.2 km/h
608 13-06-2020 02:35:00 19.1 C 11.8 g/m*3 19.1 C 6.4 km/h
609 13-06-2020 02:40:00 19 C 11.73 g/m*3 19 C 4.8 km/h
610 13-06-2020 02:45:00 18.9 C 11.66 g/m*3 18.9 C 4.8 km/h
611 13-06-2020 02:50:00 18.9 C 11.66 g/m*3 18.9 C 3.2 km/h
612 13-06-2020 02:55:00 18.8 C 11.6 g/m*3 18.8 C 4.8 km/h
613 13-06-2020 03:00:00 18.8 C 11.6 g/m*3 18.8 C 4.8 km/h
614 13-06-2020 03:05:00 18.7 C 11.53 g/m*3 18.7 C 4.8 km/h
615 13-06-2020 03:10:00 18.7 C 11.69 g/m*3 18.7 C 1.6 km/h
616 13-06-2020 03:15:00 18.6 C 11.62 g/m*3 18.6 C 0 km/h
617 13-06-2020 03:20:00 18.5 C 11.55 g/m*3 18.5 C 1.6 km/h
618 13-06-2020 03:25:00 18.4 C 11.64 g/m*3 18.4 C 1.6 km/h
619 13-06-2020 03:30:00 18.3 C 11.73 g/m*3 18.3 C 3.2 km/h
620 13-06-2020 03:35:00 18.2 C 11.81 g/m*3 18.2 C 3.2 km/h
621 13-06-2020 03:40:00 18.1 C 11.74 g/m*3 18.1 C 4.8 km/h
622 13-06-2020 03:45:00 17.9 C 11.76 g/m*3 17.9 C 4.8 km/h
623 13-06-2020 03:50:00 17.8 C 11.69 g/m*3 17.8 C 4.8 km/h
624 13-06-2020 03:55:00 17.8 C 11.84 g/m*3 17.8 C 3.2 km/h
625 13-06-2020 04:00:00 17.8 C 11.84 g/m*3 17.8 C 1.6 km/h
Sensor: Nr:Datum:Temp:Abs-Feuchte:Windchill:Wind:
Aussen-T/F 626 13-06-2020 04:05:00 17.7 C 11.92 g/m*3 17.7 C 4.8 km/h
627 13-06-2020 04:10:00 17.7 C 11.92 g/m*3 17.7 C 4.8 km/h
628 13-06-2020 04:15:00 17.6 C 11.85 g/m*3 17.6 C 4.8 km/h
629 13-06-2020 04:20:00 17.5 C 11.93 g/m*3 17.5 C 3.2 km/h
630 13-06-2020 04:25:00 17.4 C 11.86 g/m*3 17.4 C 1.6 km/h
631 13-06-2020 04:30:00 17.3 C 11.79 g/m*3 17.3 C 3.2 km/h
632 13-06-2020 04:35:00 17.3 C 11.93 g/m*3 17.3 C 3.2 km/h
633 13-06-2020 04:40:00 17.2 C 11.86 g/m*3 17.2 C 3.2 km/h
634 13-06-2020 04:45:00 17.2 C 11.86 g/m*3 17.2 C 0 km/h
635 13-06-2020 04:50:00 17.2 C 11.86 g/m*3 17.2 C 0 km/h
636 13-06-2020 04:55:00 17.1 C 11.94 g/m*3 17.1 C 0 km/h
637 13-06-2020 05:00:00 17.1 C 12.08 g/m*3 17.1 C 0 km/h
638 13-06-2020 05:05:00 17.1 C 12.08 g/m*3 17.1 C 4.8 km/h
639 13-06-2020 05:10:00 16.9 C 11.94 g/m*3 16.9 C 4.8 km/h
640 13-06-2020 05:15:00 16.8 C 11.87 g/m*3 16.8 C 0 km/h
641 13-06-2020 05:20:00 16.7 C 11.8 g/m*3 16.7 C 0 km/h
642 13-06-2020 05:25:00 16.6 C 11.87 g/m*3 16.6 C 0 km/h
643 13-06-2020 05:30:00 16.4 C 11.72 g/m*3 16.4 C 0 km/h
644 13-06-2020 05:35:00 16.3 C 11.79 g/m*3 16.3 C 0 km/h
645 13-06-2020 05:40:00 16.3 C 11.79 g/m*3 16.3 C 0 km/h
646 13-06-2020 05:45:00 16.2 C 11.86 g/m*3 16.2 C 0 km/h
647 13-06-2020 05:50:00 16.2 C 11.86 g/m*3 16.2 C 0 km/h
648 13-06-2020 05:55:00 16.1 C 11.79 g/m*3 16.1 C 0 km/h
649 13-06-2020 06:00:00 16.1 C 11.79 g/m*3 16.1 C 0 km/h
650 13-06-2020 06:05:00 16.1 C 11.93 g/m*3 16.1 C 0 km/h
Sensor: Nr:Datum:Temp:Abs-Feuchte:Windchill:Wind:
Aussen-T/F 651 13-06-2020 06:10:00 16.1 C 11.93 g/m*3 16.1 C 0 km/h
652 13-06-2020 06:15:00 16.1 C 11.93 g/m*3 16.1 C 0 km/h
653 13-06-2020 06:20:00 16.1 C 11.93 g/m*3 16.1 C 0 km/h
654 13-06-2020 06:25:00 16 C 11.85 g/m*3 16 C 0 km/h
655 13-06-2020 06:30:00 16 C 11.99 g/m*3 16 C 0 km/h
656 13-06-2020 06:35:00 16.1 C 12.06 g/m*3 16.1 C 0 km/h
657 13-06-2020 06:40:00 16.1 C 12.06 g/m*3 16.1 C 0 km/h
658 13-06-2020 06:45:00 16.1 C 12.06 g/m*3 16.1 C 0 km/h
659 13-06-2020 06:50:00 16.2 C 12.27 g/m*3 16.2 C 0 km/h
660 13-06-2020 06:55:00 16.3 C 12.21 g/m*3 16.3 C 3.2 km/h
661 13-06-2020 07:00:00 16.4 C 12.28 g/m*3 16.4 C 8.1 km/h
662 13-06-2020 07:05:00 16.6 C 12.29 g/m*3 16.6 C 8.1 km/h
663 13-06-2020 07:10:00 16.6 C 12.29 g/m*3 16.6 C 4.8 km/h
664 13-06-2020 07:15:00 16.7 C 12.36 g/m*3 16.7 C 3.2 km/h
665 13-06-2020 07:20:00 16.8 C 12.44 g/m*3 16.8 C 1.6 km/h
666 13-06-2020 07:25:00 16.9 C 12.37 g/m*3 16.9 C 0 km/h
667 13-06-2020 07:30:00 16.9 C 12.37 g/m*3 16.9 C 0 km/h
668 13-06-2020 07:35:00 17 C 12.59 g/m*3 17 C 0 km/h
669 13-06-2020 07:40:00 17.1 C 12.52 g/m*3 17.1 C 1.6 km/h
670 13-06-2020 07:45:00 17.1 C 12.52 g/m*3 17.1 C 0 km/h
671 13-06-2020 07:50:00 17.1 C 12.37 g/m*3 17.1 C 1.6 km/h
672 13-06-2020 07:55:00 17.1 C 12.52 g/m*3 17.1 C 0 km/h
673 13-06-2020 08:00:00 17.1 C 12.52 g/m*3 17.1 C 0 km/h
674 13-06-2020 08:05:00 17 C 12.44 g/m*3 17 C 1.6 km/h
675 13-06-2020 08:10:00 16.9 C 12.51 g/m*3 16.9 C 0 km/h
Sensor: Nr:Datum:Temp:Abs-Feuchte:Windchill:Wind:
Aussen-T/F 676 13-06-2020 08:15:00 16.9 C 12.51 g/m*3 16.9 C 0 km/h
677 13-06-2020 08:20:00 16.9 C 12.51 g/m*3 16.9 C 0 km/h
678 13-06-2020 08:25:00 16.9 C 12.66 g/m*3 16.9 C 0 km/h
679 13-06-2020 08:30:00 17.1 C 12.96 g/m*3 17.1 C 0 km/h
680 13-06-2020 08:35:00 17.4 C 13.04 g/m*3 17.4 C 0 km/h
681 13-06-2020 08:40:00 17.7 C 13.28 g/m*3 17.7 C 1.6 km/h
682 13-06-2020 08:45:00 18.3 C 13.13 g/m*3 18.3 C 1.6 km/h
683 13-06-2020 08:50:00 18.8 C 13.05 g/m*3 18.8 C 0 km/h
684 13-06-2020 08:55:00 19.2 C 13.19 g/m*3 19.2 C 0 km/h
685 13-06-2020 09:00:00 19.5 C 13.26 g/m*3 19.5 C 4.8 km/h
686 13-06-2020 09:05:00 19.8 C 13.15 g/m*3 19.8 C 4.8 km/h
687 13-06-2020 09:10:00 20 C 13.31 g/m*3 20 C 4.8 km/h
688 13-06-2020 09:15:00 20.2 C 13.46 g/m*3 20.2 C 6.4 km/h
689 13-06-2020 09:20:00 20.3 C 13.54 g/m*3 20.3 C 8.1 km/h
690 13-06-2020 09:25:00 20.4 C 13.44 g/m*3 20.4 C 9.7 km/h
691 13-06-2020 09:30:00 20.5 C 13.52 g/m*3 20.5 C 6.4 km/h
692 13-06-2020 09:35:00 20.6 C 13.78 g/m*3 20.6 C 1.6 km/h
693 13-06-2020 09:40:00 20.8 C 13.94 g/m*3 20.8 C 3.2 km/h
694 13-06-2020 09:45:00 20.8 C 13.58 g/m*3 20.8 C 4.8 km/h
695 13-06-2020 09:50:00 20.8 C 13.76 g/m*3 20.8 C 4.8 km/h
696 13-06-2020 09:55:00 20.8 C 13.76 g/m*3 20.8 C 4.8 km/h
697 13-06-2020 10:00:00 20.8 C 13.94 g/m*3 20.8 C 8.1 km/h
698 13-06-2020 10:05:00 20.6 C 13.78 g/m*3 20.6 C 4.8 km/h
699 13-06-2020 10:10:00 20.6 C 13.96 g/m*3 20.6 C 0 km/h
700 13-06-2020 10:15:00 20.4 C 13.62 g/m*3 20.4 C 4.8 km/h
Sensor: Nr:Datum:Temp:Abs-Feuchte:Windchill:Wind:
Aussen-T/F 701 13-06-2020 10:20:00 20.4 C 13.98 g/m*3 20.4 C 1.6 km/h
702 13-06-2020 10:25:00 20.3 C 13.54 g/m*3 20.3 C 4.8 km/h
703 13-06-2020 10:30:00 20.3 C 13.72 g/m*3 20.3 C 6.4 km/h
704 13-06-2020 10:35:00 20.3 C 13.72 g/m*3 20.3 C 4.8 km/h
705 13-06-2020 10:40:00 20.2 C 13.64 g/m*3 20.2 C 6.4 km/h
706 13-06-2020 10:45:00 20.2 C 13.64 g/m*3 20.2 C 6.4 km/h
707 13-06-2020 10:50:00 20.2 C 13.64 g/m*3 20.2 C 4.8 km/h
708 13-06-2020 10:55:00 20.2 C 13.64 g/m*3 20.2 C 3.2 km/h
709 13-06-2020 11:00:00 20.2 C 13.46 g/m*3 20.2 C 4.8 km/h
710 13-06-2020 11:05:00 20.2 C 13.29 g/m*3 20.2 C 6.4 km/h
711 13-06-2020 11:10:00 20.3 C 13.19 g/m*3 20.3 C 4.8 km/h
712 13-06-2020 11:15:00 20.4 C 13.09 g/m*3 20.4 C 4.8 km/h
713 13-06-2020 11:20:00 20.6 C 12.89 g/m*3 20.6 C 4.8 km/h
714 13-06-2020 11:25:00 20.7 C 12.96 g/m*3 20.7 C 6.4 km/h
715 13-06-2020 11:30:00 20.8 C 12.86 g/m*3 20.8 C 6.4 km/h
716 13-06-2020 11:35:00 20.8 C 12.86 g/m*3 20.8 C 8.1 km/h
717 13-06-2020 11:40:00 21 C 13.19 g/m*3 21 C 4.8 km/h
718 13-06-2020 11:45:00 21.1 C 13.08 g/m*3 21.1 C 9.7 km/h
719 13-06-2020 11:50:00 21.1 C 13.08 g/m*3 21.1 C 8.1 km/h
720 13-06-2020 11:55:00 21.1 C 13.08 g/m*3 21.1 C 6.4 km/h
721 13-06-2020 12:00:00 21.1 C 13.08 g/m*3 21.1 C 6.4 km/h
722 13-06-2020 12:05:00 20.9 C 12.75 g/m*3 20.9 C 6.4 km/h
723 13-06-2020 12:10:00 20.9 C 13.11 g/m*3 20.9 C 3.2 km/h
724 13-06-2020 12:15:00 20.9 C 13.11 g/m*3 20.9 C 3.2 km/h
725 13-06-2020 12:20:00 20.9 C 13.3 g/m*3 20.9 C 1.6 km/h
Sensor: Nr:Datum:Temp:Abs-Feuchte:Windchill:Wind:
Aussen-T/F 726 13-06-2020 12:25:00 20.9 C 13.48 g/m*3 20.9 C 0 km/h
727 13-06-2020 12:30:00 20.9 C 13.66 g/m*3 20.9 C 0 km/h
728 13-06-2020 12:35:00 21 C 13.92 g/m*3 21 C 0 km/h
729 13-06-2020 12:40:00 20.9 C 14.02 g/m*3 20.9 C 0 km/h
730 13-06-2020 12:45:00 20.9 C 14.21 g/m*3 20.9 C 1.6 km/h
731 13-06-2020 12:50:00 20.8 C 14.3 g/m*3 20.8 C 0 km/h
732 13-06-2020 12:55:00 20.8 C 14.3 g/m*3 20.8 C 0 km/h
733 13-06-2020 13:00:00 20.7 C 14.4 g/m*3 20.7 C 0 km/h
734 13-06-2020 13:05:00 20.6 C 14.5 g/m*3 20.6 C 0 km/h
735 13-06-2020 13:10:00 20.5 C 14.41 g/m*3 20.5 C 0 km/h
736 13-06-2020 13:15:00 20.4 C 14.33 g/m*3 20.4 C 0 km/h
737 13-06-2020 13:20:00 20.3 C 14.42 g/m*3 20.3 C 0 km/h
738 13-06-2020 13:25:00 20.2 C 14.34 g/m*3 20.2 C 0 km/h
739 13-06-2020 13:30:00 20.2 C 14.51 g/m*3 20.2 C 0 km/h
740 13-06-2020 13:35:00 20.1 C 14.43 g/m*3 20.1 C 0 km/h
741 13-06-2020 13:40:00 20.1 C 14.43 g/m*3 20.1 C 0 km/h
742 13-06-2020 13:45:00 20.1 C 14.25 g/m*3 20.1 C 0 km/h
743 13-06-2020 13:50:00 20.3 C 14.07 g/m*3 20.3 C 0 km/h
744 13-06-2020 13:55:00 20.6 C 13.6 g/m*3 20.6 C 0 km/h
745 13-06-2020 14:00:00 20.8 C 13.4 g/m*3 20.8 C 0 km/h
746 13-06-2020 14:05:00 21.1 C 13.82 g/m*3 21.1 C 0 km/h
747 13-06-2020 14:10:00 21.2 C 13.71 g/m*3 21.2 C 0 km/h
748 13-06-2020 14:15:00 21.3 C 14.35 g/m*3 21.3 C 0 km/h
749 13-06-2020 14:20:00 21.4 C 14.06 g/m*3 21.4 C 0 km/h
750 13-06-2020 14:25:00 21.5 C 14.14 g/m*3 21.5 C 0 km/h
Sensor: Nr:Datum:Temp:Abs-Feuchte:Windchill:Wind:
Aussen-T/F 751 13-06-2020 14:30:00 21.6 C 13.66 g/m*3 21.6 C 0 km/h
752 13-06-2020 14:35:00 21.7 C 13.93 g/m*3 21.7 C 3.2 km/h
753 13-06-2020 14:40:00 21.8 C 13.24 g/m*3 21.8 C 6.4 km/h
754 13-06-2020 14:45:00 21.9 C 13.51 g/m*3 21.9 C 6.4 km/h
755 13-06-2020 14:50:00 22 C 13.39 g/m*3 22 C 4.8 km/h
756 13-06-2020 14:55:00 22.1 C 13.27 g/m*3 22.1 C 6.4 km/h
757 13-06-2020 15:00:00 22.2 C 13.15 g/m*3 22.2 C 6.4 km/h
758 13-06-2020 15:05:00 22.2 C 13.35 g/m*3 22.2 C 4.8 km/h
759 13-06-2020 15:10:00 22.3 C 13.43 g/m*3 22.3 C 6.4 km/h
760 13-06-2020 15:15:00 22.4 C 13.5 g/m*3 22.4 C 6.4 km/h
761 13-06-2020 15:20:00 22.8 C 13.82 g/m*3 22.8 C 9.7 km/h
762 13-06-2020 15:25:00 23.5 C 13.53 g/m*3 23.5 C 4.8 km/h
763 13-06-2020 15:30:00 23.8 C 13.34 g/m*3 23.8 C 9.7 km/h
764 13-06-2020 15:35:00 24 C 13.71 g/m*3 24 C 8.1 km/h
765 13-06-2020 15:40:00 24 C 13.49 g/m*3 24 C 6.4 km/h
766 13-06-2020 15:45:00 23.9 C 13.41 g/m*3 23.9 C 4.8 km/h
767 13-06-2020 15:50:00 23.9 C 13.63 g/m*3 23.9 C 4.8 km/h
768 13-06-2020 15:55:00 24 C 13.71 g/m*3 24 C 6.4 km/h
769 13-06-2020 16:00:00 24.4 C 13.8 g/m*3 24.4 C 9.7 km/h
770 13-06-2020 16:05:00 25.2 C 13.74 g/m*3 25.2 C 12.9 km/h
771 13-06-2020 16:10:00 25.4 C 13.65 g/m*3 25.4 C 11.3 km/h
772 13-06-2020 16:15:00 25.7 C 14.13 g/m*3 25.7 C 9.7 km/h
773 13-06-2020 16:20:00 25.8 C 14.45 g/m*3 25.8 C 8.1 km/h
774 13-06-2020 16:25:00 26.3 C 13.86 g/m*3 26.3 C 6.4 km/h
775 13-06-2020 16:30:00 26.3 C 14.11 g/m*3 26.3 C 8.1 km/h
Sensor: Nr:Datum:Temp:Abs-Feuchte:Windchill:Wind:
Aussen-T/F 776 13-06-2020 16:35:00 26.3 C 13.86 g/m*3 26.3 C 8.1 km/h
777 13-06-2020 16:40:00 26.2 C 13.79 g/m*3 26.2 C 6.4 km/h
778 13-06-2020 16:45:00 25.9 C 13.56 g/m*3 25.9 C 6.4 km/h
779 13-06-2020 16:50:00 25.7 C 14.13 g/m*3 25.7 C 4.8 km/h
780 13-06-2020 16:55:00 25.8 C 14.2 g/m*3 25.8 C 3.2 km/h
781 13-06-2020 17:00:00 26.1 C 13.71 g/m*3 26.1 C 3.2 km/h
782 13-06-2020 17:05:00 26.4 C 13.69 g/m*3 26.4 C 1.6 km/h
783 13-06-2020 17:10:00 26.8 C 13.24 g/m*3 26.8 C 8.1 km/h
784 13-06-2020 17:15:00 26.8 C 13.74 g/m*3 26.8 C 9.7 km/h
785 13-06-2020 17:20:00 27.1 C 12.68 g/m*3 27.1 C 6.4 km/h
786 13-06-2020 17:25:00 27.3 C 12.56 g/m*3 27.3 C 8.1 km/h
787 13-06-2020 17:30:00 27.4 C 11.58 g/m*3 27.4 C 8.1 km/h
788 13-06-2020 17:35:00 27.2 C 10.93 g/m*3 27.2 C 6.4 km/h
789 13-06-2020 17:40:00 27.1 C 10.61 g/m*3 27.1 C 8.1 km/h
790 13-06-2020 17:45:00 27.3 C 10.99 g/m*3 27.3 C 4.8 km/h
791 13-06-2020 17:50:00 27.6 C 11.17 g/m*3 27.6 C 3.2 km/h
792 13-06-2020 17:55:00 28 C 11.42 g/m*3 28 C 6.4 km/h
793 13-06-2020 18:00:00 28.4 C 11.12 g/m*3 28.4 C 9.7 km/h
794 13-06-2020 18:05:00 28.4 C 10.84 g/m*3 28.4 C 6.4 km/h
795 13-06-2020 18:10:00 28.7 C 11.59 g/m*3 28.7 C 6.4 km/h
796 13-06-2020 18:15:00 28.8 C 11.36 g/m*3 28.8 C 8.1 km/h
797 13-06-2020 18:20:00 28.7 C 11.02 g/m*3 28.7 C 6.4 km/h
798 13-06-2020 18:25:00 28.7 C 11.3 g/m*3 28.7 C 8.1 km/h
799 13-06-2020 18:30:00 28.6 C 10.96 g/m*3 28.6 C 8.1 km/h
800 13-06-2020 18:35:00 28.6 C 11.24 g/m*3 28.6 C 6.4 km/h
Sensor: Nr:Datum:Temp:Abs-Feuchte:Windchill:Wind:
Aussen-T/F 801 13-06-2020 18:40:00 28.4 C 11.12 g/m*3 28.4 C 11.3 km/h
802 13-06-2020 18:45:00 28.6 C 11.24 g/m*3 28.6 C 6.4 km/h
803 13-06-2020 18:50:00 28.7 C 11.02 g/m*3 28.7 C 9.7 km/h
804 13-06-2020 18:55:00 28.7 C 11.02 g/m*3 28.7 C 8.1 km/h
805 13-06-2020 19:00:00 28.8 C 11.36 g/m*3 28.8 C 9.7 km/h
806 13-06-2020 19:05:00 28.6 C 11.24 g/m*3 28.6 C 12.9 km/h
807 13-06-2020 19:10:00 28 C 10.88 g/m*3 28 C 9.7 km/h
808 13-06-2020 19:15:00 27.4 C 11.05 g/m*3 27.4 C 12.9 km/h
809 13-06-2020 19:20:00 26.8 C 10.94 g/m*3 26.8 C 8.1 km/h
810 13-06-2020 19:25:00 26.4 C 11.2 g/m*3 26.4 C 8.1 km/h
811 13-06-2020 19:30:00 26.2 C 11.82 g/m*3 26.2 C 4.8 km/h
812 13-06-2020 19:35:00 25.9 C 11.62 g/m*3 25.9 C 1.6 km/h
813 13-06-2020 19:40:00 25.8 C 11.8 g/m*3 25.8 C 6.4 km/h
814 13-06-2020 19:45:00 25.6 C 12.38 g/m*3 25.6 C 4.8 km/h
815 13-06-2020 19:50:00 25.4 C 12.71 g/m*3 25.4 C 0 km/h
816 13-06-2020 19:55:00 25.2 C 12.34 g/m*3 25.2 C 3.2 km/h
817 13-06-2020 20:00:00 25 C 12.66 g/m*3 25 C 3.2 km/h
818 13-06-2020 20:05:00 24.9 C 11.9 g/m*3 24.9 C 4.8 km/h
819 13-06-2020 20:10:00 25.1 C 12.27 g/m*3 25.1 C 4.8 km/h
820 13-06-2020 20:15:00 25.2 C 12.57 g/m*3 25.2 C 0 km/h
821 13-06-2020 20:20:00 25.2 C 12.8 g/m*3 25.2 C 0 km/h
822 13-06-2020 20:25:00 25 C 12.66 g/m*3 25 C 4.8 km/h
823 13-06-2020 20:30:00 24.7 C 12.22 g/m*3 24.7 C 8.1 km/h
824 13-06-2020 20:35:00 24.4 C 12.24 g/m*3 24.4 C 3.2 km/h
825 13-06-2020 20:40:00 24.3 C 12.17 g/m*3 24.3 C 1.6 km/h
Sensor: Nr:Datum:Temp:Abs-Feuchte:Windchill:Wind:
Aussen-T/F 826 13-06-2020 20:45:00 24.1 C 12.25 g/m*3 24.1 C 1.6 km/h
827 13-06-2020 20:50:00 23.8 C 12.26 g/m*3 23.8 C 0 km/h
828 13-06-2020 20:55:00 23.6 C 12.34 g/m*3 23.6 C 1.6 km/h
829 13-06-2020 21:00:00 23.4 C 12.2 g/m*3 23.4 C 4.8 km/h
830 13-06-2020 21:05:00 23.3 C 12.13 g/m*3 23.3 C 3.2 km/h
831 13-06-2020 21:10:00 23.1 C 12.2 g/m*3 23.1 C 1.6 km/h
832 13-06-2020 21:15:00 23 C 12.13 g/m*3 23 C 8.1 km/h
833 13-06-2020 21:20:00 22.9 C 12.26 g/m*3 22.9 C 1.6 km/h
834 13-06-2020 21:25:00 22.8 C 12.8 g/m*3 22.8 C 6.4 km/h
835 13-06-2020 21:30:00 22.6 C 12.66 g/m*3 22.6 C 9.7 km/h
836 13-06-2020 21:35:00 22.3 C 12.64 g/m*3 22.3 C 4.8 km/h
837 13-06-2020 21:40:00 22.1 C 12.69 g/m*3 22.1 C 6.4 km/h
838 13-06-2020 21:45:00 21.8 C 12.66 g/m*3 21.8 C 8.1 km/h
839 13-06-2020 21:50:00 21.7 C 12.97 g/m*3 21.7 C 4.8 km/h
840 13-06-2020 21:55:00 21.5 C 12.82 g/m*3 21.5 C 4.8 km/h
841 13-06-2020 22:00:00 21.4 C 12.94 g/m*3 21.4 C 4.8 km/h
842 13-06-2020 22:05:00 21.3 C 12.86 g/m*3 21.3 C 4.8 km/h
843 13-06-2020 22:10:00 21.2 C 12.79 g/m*3 21.2 C 4.8 km/h
844 13-06-2020 22:15:00 21.2 C 12.79 g/m*3 21.2 C 11.3 km/h
845 13-06-2020 22:20:00 21.1 C 12.71 g/m*3 21.1 C 11.3 km/h
846 13-06-2020 22:25:00 21.1 C 12.9 g/m*3 21.1 C 4.8 km/h
847 13-06-2020 22:30:00 20.9 C 12.57 g/m*3 20.9 C 8.1 km/h
848 13-06-2020 22:35:00 20.8 C 12.67 g/m*3 20.8 C 4.8 km/h
849 13-06-2020 22:40:00 20.8 C 12.67 g/m*3 20.8 C 4.8 km/h
850 13-06-2020 22:45:00 20.7 C 12.6 g/m*3 20.7 C 11.3 km/h
Sensor: Nr:Datum:Temp:Abs-Feuchte:Windchill:Wind:
Aussen-T/F 851 13-06-2020 22:50:00 20.7 C 12.6 g/m*3 20.7 C 8.1 km/h
852 13-06-2020 22:55:00 20.7 C 12.6 g/m*3 20.7 C 3.2 km/h
853 13-06-2020 23:00:00 20.7 C 12.6 g/m*3 20.7 C 1.6 km/h
854 13-06-2020 23:05:00 20.6 C 12.71 g/m*3 20.6 C 3.2 km/h
855 13-06-2020 23:10:00 20.4 C 12.38 g/m*3 20.4 C 4.8 km/h
856 13-06-2020 23:15:00 20.3 C 12.49 g/m*3 20.3 C 6.4 km/h
857 13-06-2020 23:20:00 20.2 C 12.41 g/m*3 20.2 C 1.6 km/h
858 13-06-2020 23:25:00 20.1 C 12.52 g/m*3 20.1 C 4.8 km/h
859 13-06-2020 23:30:00 19.9 C 12.37 g/m*3 19.9 C 0 km/h
860 13-06-2020 23:35:00 19.8 C 12.47 g/m*3 19.8 C 4.8 km/h
861 13-06-2020 23:40:00 19.7 C 12.23 g/m*3 19.7 C 3.2 km/h
862 13-06-2020 23:45:00 19.6 C 12.49 g/m*3 19.6 C 3.2 km/h
863 13-06-2020 23:50:00 19.4 C 12.35 g/m*3 19.4 C 3.2 km/h
864 13-06-2020 23:55:00 19.3 C 12.44 g/m*3 19.3 C 0 km/h

Legende:
   Min
   Max


Maximal/Minimal-Werte vom 11.06.2020 - 13.06.2020

Sensor Min Max Avg
Temp
(Aussen-T/F)
10.3 °C
12-06-2020  04:05:00
30.2 °C
12-06-2020  16:40:00
18.71 °C
Abs-Feuchte
(Aussen-T/F)
9.1 g/m*3
12-06-2020  04:05:00
14.6 g/m*3
12-06-2020  20:20:00
11.9 g/m*3
Windchill
(Aussen-T/F)
10.3 C
12-06-2020  04:05:00
30.2 C
12-06-2020  16:40:00
18.69 C

Die Daten stammen von einer Davis Vantage Pro 2 Wetter-Station und werden unter Linux mit der Software wview2wettercgi und aufbereitet. Alle Angaben erfolgen ohne Gewähr für ihre Vollständigkeit oder Richtigkeit.
Kontakt: Rainer Krienke krienke@uni-koblenz.de . Meine Webseiten an der Uni Koblenz oder privat.
Version: $Revision: 0.78 $